createdAt,value
2022-12-03T00:00:36.569Z,96.44
2022-12-03T00:03:04.135Z,96.22
2022-12-03T00:05:30.852Z,96.20
2022-12-03T00:07:57.461Z,96.26
2022-12-03T00:10:24.455Z,96.33
2022-12-03T00:12:50.927Z,96.37
2022-12-03T00:15:17.633Z,96.25
2022-12-03T00:17:44.493Z,96.07
2022-12-03T00:20:18.696Z,95.91
2022-12-03T00:22:45.444Z,96.20
2022-12-03T00:25:12.025Z,96.37
2022-12-03T00:27:38.551Z,95.42
2022-12-03T00:30:06.597Z,95.97
2022-12-03T00:32:33.137Z,95.28
2022-12-03T00:34:59.675Z,95.54
2022-12-03T00:37:26.536Z,95.65
2022-12-03T00:39:53.108Z,95.76
2022-12-03T00:42:19.610Z,96.16
2022-12-03T00:44:46.148Z,95.61
2022-12-03T00:47:12.947Z,95.33
2022-12-03T00:49:39.596Z,95.53
2022-12-03T00:52:06.197Z,96.05
2022-12-03T00:54:32.984Z,96.44
2022-12-03T00:56:59.537Z,96.87
2022-12-03T00:59:26.333Z,96.99
2022-12-03T01:01:52.971Z,96.90
2022-12-03T01:04:19.667Z,96.48
2022-12-03T01:06:46.408Z,96.31
2022-12-03T01:09:13.036Z,96.13
2022-12-03T01:11:39.707Z,95.79
2022-12-03T01:14:07.473Z,95.12
2022-12-03T01:16:34.616Z,95.13
2022-12-03T01:19:01.435Z,94.92
2022-12-03T01:21:28.570Z,94.72
2022-12-03T01:23:55.213Z,94.88
2022-12-03T01:26:21.755Z,94.16
2022-12-03T01:28:48.616Z,93.90
2022-12-03T01:31:33.916Z,93.88
2022-12-03T01:34:00.743Z,94.18
2022-12-03T01:36:27.321Z,94.38
2022-12-03T01:38:53.829Z,94.61
2022-12-03T01:41:22.695Z,95.20
2022-12-03T01:43:51.184Z,94.78
2022-12-03T01:46:24.681Z,95.31
2022-12-03T01:48:53.737Z,95.43
2022-12-03T01:51:20.463Z,95.10
2022-12-03T01:53:47.846Z,95.28
2022-12-03T01:56:17.248Z,95.63
2022-12-03T01:58:45.482Z,95.81
2022-12-03T02:01:18.110Z,95.34
2022-12-03T02:03:46.339Z,95.03
2022-12-03T02:06:21.306Z,94.75
2022-12-03T02:08:49.148Z,94.98
2022-12-03T02:11:34.522Z,94.20
2022-12-03T02:14:06.237Z,94.75
2022-12-03T02:16:35.065Z,94.12
2022-12-03T02:19:02.176Z,94.37
2022-12-03T02:22:02.082Z,94.01
2022-12-03T02:25:09.343Z,94.21
2022-12-03T02:27:36.037Z,94.52
2022-12-03T02:30:04.416Z,94.05
2022-12-03T02:32:31.017Z,93.56
2022-12-03T02:34:57.613Z,93.64
2022-12-03T02:37:30.791Z,93.92
2022-12-03T02:40:02.155Z,93.58
2022-12-03T02:42:35.686Z,93.50
2022-12-03T02:45:19.109Z,93.50
2022-12-03T02:47:49.595Z,93.90
2022-12-03T02:50:20.702Z,93.94
2022-12-03T02:52:48.103Z,93.26
2022-12-03T02:55:17.021Z,93.47
2022-12-03T02:57:46.533Z,93.02
2022-12-03T03:00:14.133Z,93.20
2022-12-03T03:02:41.854Z,92.94
2022-12-03T03:05:11.778Z,92.66
2022-12-03T03:07:39.719Z,93.29
2022-12-03T03:10:09.309Z,93.45
2022-12-03T03:12:39.244Z,92.85
2022-12-03T03:15:07.747Z,93.28
2022-12-03T03:17:34.472Z,92.85
2022-12-03T03:20:01.582Z,92.88
2022-12-03T03:22:36.363Z,92.82
2022-12-03T03:25:04.579Z,93.29
2022-12-03T03:27:31.437Z,91.97
2022-12-03T03:29:59.108Z,92.05
2022-12-03T03:32:28.299Z,91.55
2022-12-03T03:34:55.780Z,92.29
2022-12-03T03:37:24.196Z,91.61
2022-12-03T03:39:51.215Z,91.81
2022-12-03T03:42:18.003Z,91.69
2022-12-03T03:44:44.698Z,92.58
2022-12-03T03:47:12.696Z,91.80
2022-12-03T03:49:39.306Z,92.20
2022-12-03T03:52:06.301Z,91.83
2022-12-03T03:54:33.269Z,91.65
2022-12-03T03:56:59.860Z,90.92
2022-12-03T03:59:26.723Z,91.14
2022-12-03T04:01:53.659Z,91.13
2022-12-03T04:04:22.927Z,91.48
2022-12-03T04:06:49.717Z,91.68
2022-12-03T04:09:16.443Z,91.64
2022-12-03T04:12:01.551Z,91.02
2022-12-03T04:14:28.230Z,91.49
2022-12-03T04:16:54.845Z,91.47
2022-12-03T04:19:21.497Z,91.99
2022-12-03T04:22:06.519Z,91.39
2022-12-03T04:24:32.998Z,91.17
2022-12-03T04:27:17.891Z,90.52
2022-12-03T04:29:44.382Z,91.51
2022-12-03T04:32:29.361Z,91.89
2022-12-03T04:35:14.687Z,92.17
2022-12-03T04:37:41.463Z,92.38
2022-12-03T04:40:28.649Z,91.83
2022-12-03T04:42:55.456Z,91.36
2022-12-03T04:45:21.998Z,91.06
2022-12-03T04:47:48.555Z,90.65
2022-12-03T04:50:15.469Z,90.91
2022-12-03T04:52:41.929Z,90.45
2022-12-03T04:55:08.718Z,91.49
2022-12-03T04:57:35.251Z,91.05
2022-12-03T05:00:02.204Z,91.26
2022-12-03T05:02:28.775Z,90.97
2022-12-03T05:04:55.715Z,91.86
2022-12-03T05:07:22.398Z,91.34
2022-12-03T05:09:48.945Z,91.46
2022-12-03T05:12:15.528Z,91.15
2022-12-03T05:14:42.065Z,91.06
2022-12-03T05:17:08.678Z,90.78
2022-12-03T05:19:53.779Z,91.45
2022-12-03T05:22:20.316Z,90.91
2022-12-03T05:24:46.790Z,90.52
2022-12-03T05:27:15.822Z,90.63
2022-12-03T05:29:45.364Z,90.25
2022-12-03T05:32:11.921Z,90.77
2022-12-03T05:34:38.618Z,89.96
2022-12-03T05:37:05.200Z,90.75
2022-12-03T05:39:31.739Z,90.20
2022-12-03T05:42:17.170Z,91.24
2022-12-03T05:44:43.732Z,90.34
2022-12-03T05:47:10.233Z,90.82
2022-12-03T05:49:36.831Z,90.56
2022-12-03T05:52:03.458Z,91.26
2022-12-03T05:54:29.957Z,91.28
2022-12-03T05:56:56.672Z,90.64
2022-12-03T05:59:23.214Z,90.22
2022-12-03T06:01:49.729Z,90.40
2022-12-03T06:04:16.242Z,89.87
2022-12-03T06:06:42.736Z,90.36
2022-12-03T06:09:09.216Z,90.20
2022-12-03T06:11:37.143Z,90.20
2022-12-03T06:14:04.107Z,90.07
2022-12-03T06:16:30.648Z,89.36
2022-12-03T06:18:57.556Z,89.74
2022-12-03T06:21:24.187Z,90.27
2022-12-03T06:23:50.697Z,89.73
2022-12-03T06:26:17.265Z,89.69
2022-12-03T06:28:46.421Z,89.55
2022-12-03T06:31:14.047Z,89.15
2022-12-03T06:33:40.701Z,89.10
2022-12-03T06:36:07.416Z,89.94
2022-12-03T06:38:33.969Z,89.49
2022-12-03T06:41:00.507Z,89.73
2022-12-03T06:43:27.054Z,88.97
2022-12-03T06:45:53.533Z,89.12
2022-12-03T06:48:20.182Z,89.26
2022-12-03T06:50:46.678Z,89.31
2022-12-03T06:53:13.180Z,89.01
2022-12-03T06:55:39.701Z,88.84
2022-12-03T06:58:06.167Z,88.87
2022-12-03T07:00:32.681Z,88.29
2022-12-03T07:02:59.398Z,88.79
2022-12-03T07:05:25.970Z,88.46
2022-12-03T07:07:55.273Z,89.12
2022-12-03T07:10:22.920Z,88.86
2022-12-03T07:12:49.435Z,88.91
2022-12-03T07:15:16.140Z,87.95
2022-12-03T07:17:42.855Z,88.61
2022-12-03T07:20:09.966Z,87.89
2022-12-03T07:22:36.467Z,88.21
2022-12-03T07:25:03.041Z,88.50
2022-12-03T07:27:29.558Z,87.89
2022-12-03T07:29:56.099Z,86.79
2022-12-03T07:32:22.640Z,87.67
2022-12-03T07:34:49.122Z,87.45
2022-12-03T07:37:19.953Z,87.82
2022-12-03T07:39:49.473Z,88.33
2022-12-03T07:42:16.002Z,87.88
2022-12-03T07:44:42.527Z,88.17
2022-12-03T07:47:09.381Z,88.76
2022-12-03T07:49:35.919Z,87.87
2022-12-03T07:52:02.489Z,87.52
2022-12-03T07:54:29.203Z,87.41
2022-12-03T07:57:01.189Z,87.53
2022-12-03T07:59:28.843Z,87.95
2022-12-03T08:01:55.769Z,87.72
2022-12-03T08:04:22.451Z,88.04
2022-12-03T08:06:49.234Z,88.37
2022-12-03T08:09:16.640Z,88.13
2022-12-03T08:11:45.470Z,87.53
2022-12-03T08:14:19.535Z,88.61
2022-12-03T08:16:47.702Z,87.88
2022-12-03T08:19:16.708Z,88.79
2022-12-03T08:21:43.987Z,87.84
2022-12-03T08:24:19.414Z,88.46
2022-12-03T08:26:48.175Z,87.50
2022-12-03T08:29:18.271Z,87.61
2022-12-03T08:31:49.333Z,87.72
2022-12-03T08:34:27.315Z,87.93
2022-12-03T08:37:01.600Z,87.48
2022-12-03T08:39:37.934Z,87.10
2022-12-03T08:42:23.275Z,87.43
2022-12-03T08:44:49.782Z,86.35
2022-12-03T08:47:20.245Z,85.82
2022-12-03T08:50:30.209Z,86.40
2022-12-03T08:53:08.162Z,85.91
2022-12-03T08:55:36.983Z,86.92
2022-12-03T08:58:23.280Z,86.62
2022-12-03T09:01:15.446Z,86.52
2022-12-03T09:03:51.555Z,86.16
2022-12-03T09:06:18.272Z,86.94
2022-12-03T09:08:44.901Z,86.53
2022-12-03T09:11:11.466Z,86.11
2022-12-03T09:13:38.053Z,86.30
2022-12-03T09:16:04.818Z,86.61
2022-12-03T09:18:31.532Z,84.93
2022-12-03T09:20:58.365Z,85.62
2022-12-03T09:23:24.893Z,85.60
2022-12-03T09:25:51.369Z,85.22
2022-12-03T09:28:18.011Z,84.65
2022-12-03T09:30:44.534Z,85.60
2022-12-03T09:33:11.048Z,85.03
2022-12-03T09:35:37.828Z,85.51
2022-12-03T09:38:04.353Z,86.07
2022-12-03T09:40:30.987Z,84.89
2022-12-03T09:42:58.812Z,84.42
2022-12-03T09:45:25.552Z,85.25
2022-12-03T09:47:52.512Z,84.70
2022-12-03T09:50:25.447Z,84.02
2022-12-03T09:52:55.097Z,83.35
2022-12-03T09:55:25.169Z,83.78
2022-12-03T09:57:56.255Z,83.07
2022-12-03T10:00:28.223Z,82.98
2022-12-03T10:03:01.888Z,82.57
2022-12-03T10:05:28.729Z,83.05
2022-12-03T10:08:05.372Z,82.80
2022-12-03T10:10:33.420Z,83.78
2022-12-03T10:13:00.342Z,83.63
2022-12-03T10:15:27.133Z,83.68
2022-12-03T10:17:55.288Z,84.11
2022-12-03T10:20:23.903Z,84.14
2022-12-03T10:22:50.834Z,84.32
2022-12-03T10:25:20.833Z,84.39
2022-12-03T10:28:00.491Z,84.34
2022-12-03T10:30:28.546Z,83.18
2022-12-03T10:32:58.001Z,81.84
2022-12-03T10:35:37.541Z,83.84
2022-12-03T10:38:19.393Z,84.35
2022-12-03T10:40:46.749Z,85.74
2022-12-03T10:43:19.092Z,86.11
2022-12-03T10:45:47.472Z,85.41
2022-12-03T10:48:19.800Z,85.01
2022-12-03T10:50:54.593Z,86.26
2022-12-03T10:53:29.517Z,84.84
2022-12-03T10:55:59.910Z,83.72
2022-12-03T10:58:31.847Z,84.18
2022-12-03T11:00:59.060Z,83.54
2022-12-03T11:03:28.910Z,83.61
2022-12-03T11:05:57.059Z,84.55
2022-12-03T11:08:30.668Z,84.20
2022-12-03T11:11:13.358Z,84.16
2022-12-03T11:13:40.022Z,84.42
2022-12-03T11:16:08.386Z,84.01
2022-12-03T11:18:37.966Z,85.43
2022-12-03T11:21:11.324Z,84.67
2022-12-03T11:23:47.069Z,85.41
2022-12-03T11:26:43.896Z,84.84
2022-12-03T11:29:14.322Z,84.54
2022-12-03T11:31:46.632Z,84.52
2022-12-03T11:34:19.611Z,85.65
2022-12-03T11:37:11.344Z,85.65
2022-12-03T11:39:50.656Z,84.78
2022-12-03T11:42:26.038Z,85.08
2022-12-03T11:45:04.605Z,84.64
2022-12-03T11:47:45.423Z,85.37
2022-12-03T11:50:24.151Z,85.27
2022-12-03T11:53:13.566Z,84.24
2022-12-03T11:55:48.484Z,84.75
2022-12-03T11:58:43.185Z,84.71
2022-12-03T12:01:10.060Z,84.37
2022-12-03T12:03:47.298Z,84.63
2022-12-03T12:06:19.487Z,84.02
2022-12-03T12:08:51.937Z,84.48
2022-12-03T12:11:26.486Z,85.23
2022-12-03T12:14:14.799Z,84.96
2022-12-03T12:16:43.328Z,84.41
2022-12-03T12:19:45.658Z,84.56
2022-12-03T12:22:15.785Z,84.09
2022-12-03T12:24:43.490Z,84.15
2022-12-03T12:27:11.942Z,84.26
2022-12-03T12:29:40.971Z,83.91
2022-12-03T12:32:10.746Z,84.06
2022-12-03T12:34:39.214Z,84.37
2022-12-03T12:37:10.906Z,84.49
2022-12-03T12:39:38.801Z,85.35
2022-12-03T12:42:17.986Z,85.51
2022-12-03T12:44:44.613Z,84.68
2022-12-03T12:47:12.548Z,83.85
2022-12-03T12:49:39.082Z,85.11
2022-12-03T12:52:06.055Z,84.48
2022-12-03T12:54:32.637Z,84.96
2022-12-03T12:56:59.218Z,85.16
2022-12-03T12:59:26.031Z,85.07
2022-12-03T13:01:52.699Z,84.71
2022-12-03T13:04:24.023Z,84.72
2022-12-03T13:06:54.049Z,84.58
2022-12-03T13:09:23.888Z,84.40
2022-12-03T13:12:03.838Z,85.05
2022-12-03T13:14:33.233Z,84.64
2022-12-03T13:17:01.934Z,84.64
2022-12-03T13:19:32.984Z,83.80
2022-12-03T13:22:12.772Z,84.02
2022-12-03T13:24:43.217Z,84.00
2022-12-03T13:27:19.744Z,83.45
2022-12-03T13:29:50.822Z,82.74
2022-12-03T13:32:23.217Z,82.91
2022-12-03T13:34:50.703Z,82.61
2022-12-03T13:37:27.065Z,82.57
2022-12-03T13:39:56.622Z,83.11
2022-12-03T13:42:41.439Z,83.39
2022-12-03T13:45:13.730Z,82.73
2022-12-03T13:48:02.063Z,82.42
2022-12-03T13:50:34.538Z,82.91
2022-12-03T13:53:03.747Z,82.95
2022-12-03T13:55:31.454Z,83.34
2022-12-03T13:57:58.304Z,84.12
2022-12-03T14:00:25.116Z,83.47
2022-12-03T14:02:51.849Z,83.85
2022-12-03T14:05:18.965Z,83.18
2022-12-03T14:07:45.772Z,83.67
2022-12-03T14:10:12.919Z,84.25
2022-12-03T14:12:39.458Z,84.44
2022-12-03T14:15:07.049Z,84.19
2022-12-03T14:17:33.597Z,84.84
2022-12-03T14:20:01.394Z,84.49
2022-12-03T14:22:28.768Z,84.30
2022-12-03T14:24:56.023Z,83.84
2022-12-03T14:27:24.577Z,84.05
2022-12-03T14:29:52.495Z,83.59
2022-12-03T14:32:19.440Z,83.45
2022-12-03T14:34:45.996Z,84.00
2022-12-03T14:37:12.590Z,84.04
2022-12-03T14:39:39.667Z,83.66
2022-12-03T14:42:15.601Z,84.08
2022-12-03T14:44:50.024Z,83.98
2022-12-03T14:47:19.074Z,83.65
2022-12-03T14:49:46.322Z,84.32
2022-12-03T14:52:13.083Z,85.40
2022-12-03T14:54:42.630Z,84.03
2022-12-03T14:57:11.645Z,84.47
2022-12-03T14:59:39.278Z,85.62
2022-12-03T15:02:05.922Z,85.92
2022-12-03T15:04:32.483Z,86.33
2022-12-03T15:06:59.003Z,85.97
2022-12-03T15:09:25.766Z,86.85
2022-12-03T15:11:52.319Z,86.83
2022-12-03T15:14:18.877Z,86.03
2022-12-03T15:16:45.548Z,86.40
2022-12-03T15:19:12.089Z,87.33
2022-12-03T15:21:38.696Z,86.76
2022-12-03T15:24:05.654Z,86.97
2022-12-03T15:26:32.185Z,86.94
2022-12-03T15:28:58.729Z,87.18
2022-12-03T15:31:25.393Z,87.93
2022-12-03T15:33:51.941Z,87.49
2022-12-03T15:36:18.523Z,86.08
2022-12-03T15:38:45.100Z,86.65
2022-12-03T15:41:21.401Z,86.54
2022-12-03T15:43:49.082Z,85.86
2022-12-03T15:46:15.780Z,86.29
2022-12-03T15:48:42.420Z,86.06
2022-12-03T15:51:08.984Z,86.03
2022-12-03T15:53:35.541Z,86.31
2022-12-03T15:56:02.158Z,87.36
2022-12-03T15:58:29.097Z,87.64
2022-12-03T16:00:55.742Z,87.61
2022-12-03T16:03:22.590Z,87.37
2022-12-03T16:05:49.301Z,87.57
2022-12-03T16:08:15.918Z,87.69
2022-12-03T16:10:42.520Z,87.99
2022-12-03T16:13:09.334Z,87.50
2022-12-03T16:15:35.939Z,86.78
2022-12-03T16:18:02.496Z,87.50
2022-12-03T16:20:29.297Z,87.27
2022-12-03T16:22:55.906Z,87.44
2022-12-03T16:25:22.488Z,87.84
2022-12-03T16:27:49.073Z,87.22
2022-12-03T16:30:15.798Z,86.66
2022-12-03T16:32:42.350Z,86.73
2022-12-03T16:35:09.486Z,85.92
2022-12-03T16:37:36.009Z,86.78
2022-12-03T16:40:02.967Z,86.86
2022-12-03T16:42:29.680Z,86.58
2022-12-03T16:45:22.859Z,86.69
2022-12-03T16:47:50.113Z,87.30
2022-12-03T16:50:24.496Z,86.85
2022-12-03T16:52:55.501Z,85.52
2022-12-03T16:55:22.037Z,86.20
2022-12-03T16:57:48.559Z,86.05
2022-12-03T17:00:15.717Z,86.66
2022-12-03T17:02:42.257Z,86.66
2022-12-03T17:05:09.143Z,86.61
2022-12-03T17:07:35.991Z,86.91
2022-12-03T17:10:02.688Z,86.64
2022-12-03T17:12:42.326Z,86.67
2022-12-03T17:15:15.958Z,87.35
2022-12-03T17:17:42.444Z,86.93
2022-12-03T17:20:09.275Z,86.90
2022-12-03T17:22:35.976Z,86.93
2022-12-03T17:25:02.482Z,87.06
2022-12-03T17:27:29.527Z,86.15
2022-12-03T17:29:56.281Z,86.49
2022-12-03T17:32:22.947Z,87.40
2022-12-03T17:34:49.708Z,87.85
2022-12-03T17:37:16.333Z,86.83
2022-12-03T17:39:42.826Z,86.51
2022-12-03T17:42:09.418Z,86.89
2022-12-03T17:44:35.986Z,86.68
2022-12-03T17:47:02.567Z,87.10
2022-12-03T17:49:31.642Z,87.07
2022-12-03T17:51:58.634Z,85.82
2022-12-03T17:54:34.133Z,86.78
2022-12-03T17:57:11.673Z,86.05
2022-12-03T17:59:38.151Z,87.24
2022-12-03T18:02:04.709Z,87.44
2022-12-03T18:04:31.533Z,86.67
2022-12-03T18:07:02.177Z,87.45
2022-12-03T18:09:29.257Z,87.53
2022-12-03T18:11:56.005Z,86.61
2022-12-03T18:14:22.485Z,86.66
2022-12-03T18:16:49.069Z,86.33
2022-12-03T18:19:15.784Z,86.79
2022-12-03T18:21:42.345Z,86.95
2022-12-03T18:24:09.486Z,87.02
2022-12-03T18:26:36.300Z,87.04
2022-12-03T18:29:03.259Z,86.33
2022-12-03T18:31:29.876Z,86.58
2022-12-03T18:33:56.638Z,86.56
2022-12-03T18:36:25.989Z,87.08
2022-12-03T18:38:55.420Z,86.66
2022-12-03T18:41:25.154Z,86.76
2022-12-03T18:43:51.999Z,86.70
2022-12-03T18:46:51.226Z,86.17
2022-12-03T18:49:06.226Z,85.81
2022-12-03T18:51:32.752Z,85.51
2022-12-03T18:53:59.277Z,87.30
2022-12-03T18:56:25.838Z,86.64
2022-12-03T18:58:52.352Z,86.61
2022-12-03T19:01:22.278Z,86.72
2022-12-03T19:03:49.998Z,87.15
2022-12-03T19:06:19.641Z,86.48
2022-12-03T19:08:48.245Z,85.96
2022-12-03T19:11:15.360Z,86.80
2022-12-03T19:13:42.133Z,87.21
2022-12-03T19:16:10.466Z,87.13
2022-12-03T19:18:37.248Z,85.76
2022-12-03T19:21:08.612Z,85.76
2022-12-03T19:23:36.976Z,87.05
2022-12-03T19:26:06.199Z,87.46
2022-12-03T19:28:33.024Z,87.55
2022-12-03T19:31:15.027Z,87.10
2022-12-03T19:33:45.578Z,87.99
2022-12-03T19:36:23.899Z,87.04
2022-12-03T19:38:56.846Z,87.26
2022-12-03T19:41:27.388Z,86.84
2022-12-03T19:43:55.385Z,87.71
2022-12-03T19:46:23.956Z,87.97
2022-12-03T19:48:50.766Z,87.84
2022-12-03T19:51:33.668Z,87.53
2022-12-03T19:54:01.090Z,88.86
2022-12-03T19:56:30.251Z,89.01
2022-12-03T19:58:57.426Z,88.36
2022-12-03T20:01:26.866Z,88.89
2022-12-03T20:03:55.334Z,87.98
2022-12-03T20:06:24.565Z,87.96
2022-12-03T20:08:55.648Z,87.95
2022-12-03T20:11:25.152Z,89.20
2022-12-03T20:13:57.667Z,89.05
2022-12-03T20:16:25.832Z,88.68
2022-12-03T20:18:57.122Z,89.00
2022-12-03T20:21:24.260Z,88.21
2022-12-03T20:23:50.830Z,89.95
2022-12-03T20:26:19.654Z,89.29
2022-12-03T20:28:48.149Z,88.61
2022-12-03T20:31:20.178Z,89.18
2022-12-03T20:33:50.124Z,88.93
2022-12-03T20:36:18.610Z,89.31
2022-12-03T20:38:45.297Z,89.03
2022-12-03T20:41:14.393Z,89.74
2022-12-03T20:43:41.465Z,89.72
2022-12-03T20:46:17.983Z,89.45
2022-12-03T20:48:45.398Z,89.45
2022-12-03T20:51:15.487Z,89.67
2022-12-03T20:53:42.937Z,90.19
2022-12-03T20:56:18.583Z,89.96
2022-12-03T20:58:45.120Z,89.97
2022-12-03T21:01:16.167Z,89.14
2022-12-03T21:03:43.865Z,89.77
2022-12-03T21:06:11.524Z,90.16
2022-12-03T21:08:41.893Z,89.80
2022-12-03T21:11:14.946Z,89.83
2022-12-03T21:13:43.503Z,89.97
2022-12-03T21:16:13.293Z,89.73
2022-12-03T21:18:40.598Z,89.49
2022-12-03T21:21:08.579Z,89.94
2022-12-03T21:23:35.632Z,90.16
2022-12-03T21:26:22.297Z,89.84
2022-12-03T21:28:51.289Z,90.13
2022-12-03T21:31:20.679Z,90.08
2022-12-03T21:33:48.212Z,90.60
2022-12-03T21:36:16.813Z,90.85
2022-12-03T21:38:44.945Z,90.37
2022-12-03T21:41:12.688Z,89.79
2022-12-03T21:43:39.295Z,90.35
2022-12-03T21:47:10.160Z,90.20
2022-12-03T21:48:59.455Z,89.21
2022-12-03T21:51:26.021Z,89.62
2022-12-03T21:53:53.497Z,90.36
2022-12-03T21:56:20.204Z,89.60
2022-12-03T21:58:47.026Z,90.35
2022-12-03T22:01:19.542Z,89.70
2022-12-03T22:03:46.502Z,89.57
2022-12-03T22:09:54.123Z,89.65
2022-12-03T22:12:20.790Z,89.71
2022-12-03T22:14:47.369Z,89.37
2022-12-03T22:17:13.909Z,89.90
2022-12-03T22:19:40.482Z,91.35
2022-12-03T22:22:07.048Z,91.27
2022-12-03T22:24:33.745Z,90.83
2022-12-03T22:27:00.335Z,90.06
2022-12-03T22:29:26.849Z,90.25
2022-12-03T22:31:53.483Z,90.41
2022-12-03T22:34:20.008Z,91.01
2022-12-03T22:36:46.577Z,91.25
2022-12-03T22:39:13.292Z,91.06
2022-12-03T22:41:39.793Z,91.72
2022-12-03T22:44:06.293Z,92.25
2022-12-03T22:46:33.155Z,91.63
2022-12-03T22:49:06.455Z,90.06
2022-12-03T22:51:34.220Z,89.26
2022-12-03T22:54:01.878Z,89.65
2022-12-03T22:56:30.340Z,90.87
2022-12-03T22:58:57.247Z,90.40
2022-12-03T23:01:27.878Z,90.93
2022-12-03T23:03:54.815Z,91.15
2022-12-03T23:06:22.645Z,91.12
2022-12-03T23:08:49.624Z,89.25
2022-12-03T23:11:16.606Z,89.29
2022-12-03T23:13:43.123Z,90.48
2022-12-03T23:16:15.150Z,91.36
2022-12-03T23:18:42.110Z,90.45
2022-12-03T23:21:09.111Z,90.06
2022-12-03T23:23:35.642Z,90.14
2022-12-03T23:26:07.901Z,90.92
2022-12-03T23:28:36.672Z,90.88
2022-12-03T23:31:04.286Z,90.92
2022-12-03T23:33:36.624Z,91.75
2022-12-03T23:36:06.334Z,91.08
2022-12-03T23:38:32.791Z,91.75
2022-12-03T23:41:07.301Z,91.56
2022-12-03T23:43:34.093Z,91.17
2022-12-03T23:46:09.500Z,90.64
2022-12-03T23:48:36.472Z,91.35
2022-12-03T23:51:11.469Z,91.27
2022-12-03T23:53:39.061Z,91.15
2022-12-03T23:56:07.204Z,91.37
2022-12-03T23:58:34.252Z,90.58
